createdAt,value
2019-03-06T00:00:51.886Z,125.62
2019-03-06T00:03:48.330Z,126.80
2019-03-06T00:06:43.863Z,118.55
2019-03-06T00:09:39.339Z,114.95
2019-03-06T00:12:34.563Z,133.82
2019-03-06T00:15:29.987Z,140.73
2019-03-06T00:18:25.461Z,147.13
2019-03-06T00:21:20.983Z,129.50
2019-03-06T00:24:17.046Z,153.70
2019-03-06T00:27:13.519Z,152.82
2019-03-06T00:30:10.377Z,125.62
2019-03-06T00:33:05.738Z,133.12
2019-03-06T00:36:01.441Z,133.65
2019-03-06T00:38:57.636Z,129.60
2019-03-06T00:41:55.473Z,127.47
2019-03-06T00:44:50.830Z,160.65
2019-03-06T00:47:46.685Z,170.28
2019-03-06T00:50:43.570Z,182.60
2019-03-06T00:53:39.041Z,149.85
2019-03-06T00:56:35.085Z,179.50
2019-03-06T00:59:30.762Z,166.40
2019-03-06T01:02:26.321Z,184.18
2019-03-06T01:05:22.299Z,156.97
2019-03-06T01:08:17.295Z,160.82
2019-03-06T01:11:14.213Z,167.90
2019-03-06T01:14:09.811Z,192.62
2019-03-06T01:17:05.350Z,164.85
2019-03-06T01:20:01.012Z,177.93
2019-03-06T01:22:56.527Z,175.35
2019-03-06T01:25:51.461Z,182.32
2019-03-06T01:28:47.137Z,169.20
2019-03-06T01:31:42.271Z,188.45
2019-03-06T01:34:55.524Z,186.28
2019-03-06T01:38:12.221Z,205.80
2019-03-06T01:41:25.788Z,202.13
2019-03-06T01:44:24.601Z,225.32
2019-03-06T01:47:20.318Z,237.72
2019-03-06T01:50:17.683Z,244.28
2019-03-06T01:53:12.576Z,210.78
2019-03-06T01:56:08.302Z,196.63
2019-03-06T01:59:03.991Z,162.62
2019-03-06T02:01:59.839Z,152.05
2019-03-06T02:04:54.470Z,170.43
2019-03-06T02:07:50.135Z,181.35
2019-03-06T02:10:46.038Z,159.70
2019-03-06T02:13:42.316Z,170.32
2019-03-06T02:16:37.689Z,136.85
2019-03-06T02:19:33.265Z,155.22
2019-03-06T02:22:29.247Z,159.43
2019-03-06T02:25:24.770Z,168.60
2019-03-06T02:28:20.762Z,172.85
2019-03-06T02:31:15.897Z,168.93
2019-03-06T02:34:11.544Z,156.75
2019-03-06T02:37:06.805Z,150.22
2019-03-06T02:40:02.710Z,156.70
2019-03-06T02:42:58.856Z,155.27
2019-03-06T02:45:56.102Z,132.20
2019-03-06T02:48:50.418Z,148.45
2019-03-06T02:51:46.433Z,149.38
2019-03-06T02:54:41.370Z,147.55
2019-03-06T02:57:37.708Z,122.22
2019-03-06T03:00:54.202Z,138.50
2019-03-06T03:04:18.489Z,140.15
2019-03-06T03:07:17.702Z,126.20
2019-03-06T03:10:14.513Z,113.77
2019-03-06T03:13:10.695Z,140.62
2019-03-06T03:16:06.182Z,106.12
2019-03-06T03:19:01.849Z,86.50
2019-03-06T03:21:58.189Z,74.10
2019-03-06T03:24:53.539Z,84.62
2019-03-06T03:27:49.188Z,76.37
2019-03-06T03:30:45.262Z,81.00
2019-03-06T03:33:40.702Z,79.10
2019-03-06T03:36:36.394Z,69.75
2019-03-06T03:39:31.503Z,83.72
2019-03-06T03:42:26.331Z,74.90
2019-03-06T03:45:22.202Z,84.30
2019-03-06T03:48:17.744Z,85.28
2019-03-06T03:51:13.135Z,79.07
2019-03-06T03:54:08.338Z,72.58
2019-03-06T03:57:04.413Z,75.40
2019-03-06T04:00:00.309Z,67.65
2019-03-06T04:02:55.432Z,75.17
2019-03-06T04:05:51.428Z,81.25
2019-03-06T04:23:33.511Z,73.07
2019-03-06T04:26:29.071Z,71.53
2019-03-06T04:29:24.599Z,74.47
2019-03-06T04:32:19.920Z,70.95
2019-03-06T04:35:15.021Z,76.12
2019-03-06T04:38:10.706Z,77.87
2019-03-06T04:41:06.596Z,72.22
2019-03-06T04:44:01.822Z,64.75
2019-03-06T04:46:56.997Z,71.45
2019-03-06T04:49:52.916Z,70.60
2019-03-06T04:52:48.351Z,76.65
2019-03-06T04:55:44.050Z,76.62
2019-03-06T05:03:29.559Z,80.90
2019-03-06T05:06:25.097Z,70.60
2019-03-06T05:09:20.395Z,69.27
2019-03-06T05:12:17.059Z,68.22
2019-03-06T05:15:30.159Z,76.10
2019-03-06T05:18:55.989Z,74.37
2019-03-06T05:22:01.336Z,76.82
2019-03-06T05:25:26.270Z,87.15
2019-03-06T05:28:33.151Z,57.58
2019-03-06T05:31:28.842Z,61.68
2019-03-06T05:34:24.963Z,77.58
2019-03-06T05:38:03.671Z,69.03
2019-03-06T05:41:01.029Z,73.97
2019-03-06T05:44:00.665Z,73.35
2019-03-06T05:46:57.606Z,67.92
2019-03-06T05:49:53.611Z,79.30
2019-03-06T05:52:49.684Z,58.28
2019-03-06T05:55:44.630Z,65.03
2019-03-06T05:58:40.220Z,65.90
2019-03-06T06:01:35.994Z,64.45
2019-03-06T06:04:32.134Z,69.75
2019-03-06T06:07:30.140Z,85.42
2019-03-06T06:10:25.926Z,70.20
2019-03-06T06:13:21.621Z,71.17
2019-03-06T06:16:31.172Z,99.07
2019-03-06T06:19:27.103Z,70.87
2019-03-06T06:22:32.590Z,74.77
2019-03-06T06:25:28.306Z,59.93
2019-03-06T06:28:26.753Z,77.45
2019-03-06T06:31:22.677Z,72.85
2019-03-06T06:34:18.707Z,69.17
2019-03-06T06:37:14.620Z,68.62
2019-03-06T06:40:17.427Z,81.47
2019-03-06T06:43:14.847Z,69.60
2019-03-06T06:46:11.218Z,72.80
2019-03-06T06:49:07.666Z,61.30
2019-03-06T06:52:37.758Z,76.47
2019-03-06T06:56:19.987Z,73.37
2019-03-06T07:00:03.341Z,66.75
2019-03-06T07:03:49.342Z,72.22
2019-03-06T07:07:04.857Z,85.15
2019-03-06T07:10:18.864Z,85.62
2019-03-06T07:13:41.356Z,88.67
2019-03-06T07:16:57.521Z,80.97
2019-03-06T07:20:09.185Z,92.12
2019-03-06T07:23:25.201Z,75.45
2019-03-06T07:26:32.748Z,75.35
2019-03-06T07:29:38.762Z,97.20
2019-03-06T07:32:56.525Z,87.47
2019-03-06T07:36:15.814Z,82.62
2019-03-06T07:39:24.652Z,86.20
2019-03-06T07:42:40.039Z,79.47
2019-03-06T07:46:00.401Z,97.22
2019-03-06T07:49:20.107Z,79.95
2019-03-06T07:52:41.322Z,78.05
2019-03-06T07:56:06.428Z,88.60
2019-03-06T07:59:05.602Z,96.35
2019-03-06T08:02:03.677Z,78.47
2019-03-06T08:04:59.493Z,87.10
2019-03-06T08:07:55.282Z,71.28
2019-03-06T08:10:51.062Z,85.03
2019-03-06T08:13:54.953Z,114.22
2019-03-06T08:17:23.304Z,100.10
2019-03-06T08:20:34.901Z,79.85
2019-03-06T08:23:47.691Z,94.00
2019-03-06T08:26:42.476Z,74.90
2019-03-06T08:29:38.097Z,80.00
2019-03-06T08:32:34.819Z,80.28
2019-03-06T08:35:29.720Z,83.80
2019-03-06T08:38:25.441Z,83.45
2019-03-06T08:41:20.781Z,82.88
2019-03-06T08:44:16.040Z,77.05
2019-03-06T08:47:35.476Z,76.57
2019-03-06T08:50:47.144Z,74.85
2019-03-06T08:53:50.626Z,81.63
2019-03-06T08:56:55.639Z,67.92
2019-03-06T09:00:11.513Z,84.25
2019-03-06T09:03:24.465Z,78.17
2019-03-06T09:06:29.318Z,74.10
2019-03-06T09:09:51.456Z,73.33
2019-03-06T09:13:04.855Z,63.70
2019-03-06T09:16:18.779Z,63.65
2019-03-06T09:19:34.149Z,67.30
2019-03-06T09:22:49.282Z,56.55
2019-03-06T09:26:16.227Z,61.90
2019-03-06T09:29:24.754Z,60.28
2019-03-06T09:32:54.373Z,59.55
2019-03-06T09:36:07.715Z,64.97
2019-03-06T09:39:21.023Z,61.25
2019-03-06T09:42:54.064Z,64.27
2019-03-06T09:46:23.927Z,59.05
2019-03-06T09:49:37.742Z,70.85
2019-03-06T09:52:58.876Z,67.92
2019-03-06T09:56:01.315Z,57.45
2019-03-06T09:59:36.771Z,77.82
2019-03-06T10:03:05.806Z,66.07
2019-03-06T10:06:20.495Z,62.25
2019-03-06T10:10:12.636Z,58.28
2019-03-06T10:13:42.487Z,68.97
2019-03-06T10:16:50.553Z,58.17
2019-03-06T10:20:01.519Z,61.73
2019-03-06T10:23:00.950Z,74.62
2019-03-06T10:25:57.556Z,57.10
2019-03-06T10:28:56.450Z,62.60
2019-03-06T10:31:52.895Z,52.58
2019-03-06T10:35:02.889Z,77.50
2019-03-06T10:38:03.786Z,68.83
2019-03-06T10:41:15.997Z,64.65
2019-03-06T10:44:12.617Z,58.33
2019-03-06T10:47:12.220Z,62.30
2019-03-06T10:50:16.510Z,77.03
2019-03-06T10:53:14.953Z,69.92
2019-03-06T10:56:12.807Z,74.22
2019-03-06T10:59:15.227Z,73.55
2019-03-06T11:02:33.766Z,60.73
2019-03-06T11:05:45.107Z,71.67
2019-03-06T11:09:59.628Z,66.53
2019-03-06T11:13:04.632Z,65.70
2019-03-06T11:16:37.042Z,70.50
2019-03-06T11:19:40.608Z,53.70
2019-03-06T11:22:39.945Z,71.72
2019-03-06T11:25:36.170Z,51.30
2019-03-06T11:28:49.297Z,60.80
2019-03-06T11:31:39.249Z,55.60
2019-03-06T11:34:42.929Z,61.90
2019-03-06T11:37:38.684Z,63.55
2019-03-06T11:40:41.832Z,53.42
2019-03-06T11:43:41.081Z,57.78
2019-03-06T11:46:41.255Z,55.88
2019-03-06T11:54:15.829Z,56.35
2019-03-06T11:57:48.904Z,63.73
2019-03-06T12:00:47.354Z,58.38
2019-03-06T12:03:42.767Z,60.23
2019-03-06T12:06:38.946Z,59.13
2019-03-06T12:09:37.407Z,57.93
2019-03-06T12:12:32.682Z,66.82
2019-03-06T12:15:28.194Z,91.15
2019-03-06T12:18:48.208Z,67.65
2019-03-06T12:21:49.307Z,72.12
2019-03-06T12:24:44.821Z,69.92
2019-03-06T12:27:39.929Z,62.23
2019-03-06T12:30:35.583Z,62.83
2019-03-06T12:33:32.255Z,69.47
2019-03-06T12:36:27.244Z,53.28
2019-03-06T12:39:22.706Z,68.78
2019-03-06T12:42:18.153Z,60.28
2019-03-06T12:45:16.579Z,72.95
2019-03-06T12:48:13.182Z,69.67
2019-03-06T12:51:09.887Z,62.03
2019-03-06T12:54:05.434Z,65.12
2019-03-06T12:57:01.488Z,74.32
2019-03-06T12:59:56.912Z,66.77
2019-03-06T13:02:52.192Z,85.42
2019-03-06T13:05:47.366Z,83.33
2019-03-06T13:08:51.731Z,80.38
2019-03-06T13:11:49.949Z,85.85
2019-03-06T13:14:45.115Z,79.15
2019-03-06T13:17:40.414Z,92.10
2019-03-06T13:20:35.841Z,97.75
2019-03-06T13:23:32.421Z,96.78
2019-03-06T13:26:32.182Z,108.60
2019-03-06T13:29:28.188Z,103.17
2019-03-06T13:33:20.759Z,95.12
2019-03-06T13:36:16.440Z,104.80
2019-03-06T13:39:13.506Z,103.45
2019-03-06T13:42:08.415Z,102.05
2019-03-06T13:45:03.526Z,103.92
2019-03-06T13:47:59.081Z,87.75
2019-03-06T13:50:55.556Z,102.82
2019-03-06T13:53:51.438Z,109.10
2019-03-06T13:56:49.279Z,102.92
2019-03-06T13:59:44.302Z,99.20
2019-03-06T14:02:39.662Z,121.95
2019-03-06T14:05:36.381Z,102.97
2019-03-06T14:08:31.742Z,110.92
2019-03-06T14:11:27.801Z,100.67
2019-03-06T14:14:23.374Z,146.80
2019-03-06T14:17:18.814Z,128.00
2019-03-06T14:20:14.865Z,126.92
2019-03-06T14:23:10.242Z,131.43
2019-03-06T14:26:20.179Z,126.55
2019-03-06T14:29:18.311Z,117.75
2019-03-06T14:32:16.135Z,122.42
2019-03-06T14:35:11.575Z,134.55
2019-03-06T14:38:07.122Z,163.30
2019-03-06T14:41:02.718Z,143.52
2019-03-06T14:43:58.295Z,138.00
2019-03-06T14:46:53.931Z,120.60
2019-03-06T14:49:48.944Z,117.20
2019-03-06T14:52:43.894Z,121.10
2019-03-06T14:55:39.029Z,142.62
2019-03-06T14:58:34.447Z,119.35
2019-03-06T15:01:29.799Z,91.78
2019-03-06T15:04:24.768Z,112.75
2019-03-06T15:07:20.106Z,76.33
2019-03-06T15:10:17.022Z,78.78
2019-03-06T15:13:12.295Z,89.62
2019-03-06T15:16:07.953Z,94.10
2019-03-06T15:19:03.433Z,87.85
2019-03-06T15:21:58.689Z,100.30
2019-03-06T15:24:53.869Z,110.45
2019-03-06T15:27:50.382Z,90.90
2019-03-06T15:30:45.704Z,109.22
2019-03-06T15:33:41.570Z,101.95
2019-03-06T15:36:36.584Z,81.97
2019-03-06T15:39:45.674Z,82.00
2019-03-06T15:42:33.293Z,82.67
2019-03-06T15:45:32.917Z,99.00
2019-03-06T15:48:27.792Z,94.00
2019-03-06T15:51:23.211Z,104.70
2019-03-06T15:54:18.829Z,115.10
2019-03-06T15:57:13.801Z,81.90
2019-03-06T16:00:11.194Z,88.82
2019-03-06T16:03:07.634Z,90.53
2019-03-06T16:06:02.789Z,101.05
2019-03-06T16:08:57.965Z,86.32
2019-03-06T16:11:53.839Z,94.75
2019-03-06T16:14:52.680Z,90.60
2019-03-06T16:17:47.970Z,95.75
2019-03-06T16:20:43.477Z,94.28
2019-03-06T16:23:39.002Z,77.40
2019-03-06T16:26:34.717Z,94.10
2019-03-06T16:29:30.233Z,89.65
2019-03-06T16:32:25.538Z,82.75
2019-03-06T16:35:20.952Z,71.12
2019-03-06T16:38:16.235Z,84.52
2019-03-06T16:41:11.173Z,71.67
2019-03-06T16:44:07.104Z,60.83
2019-03-06T16:47:06.614Z,74.82
2019-03-06T16:49:59.856Z,77.08
2019-03-06T16:52:55.510Z,87.75
2019-03-06T16:55:51.321Z,64.58
2019-03-06T16:58:46.195Z,78.52
2019-03-06T17:01:41.476Z,69.12
2019-03-06T17:04:37.083Z,64.17
2019-03-06T17:07:32.812Z,82.02
2019-03-06T17:10:28.870Z,66.75
2019-03-06T17:13:24.087Z,82.33
2019-03-06T17:16:27.633Z,72.50
2019-03-06T17:19:23.471Z,73.45
2019-03-06T17:22:19.108Z,80.67
2019-03-06T17:25:14.972Z,78.75
2019-03-06T17:28:11.448Z,68.87
2019-03-06T17:31:07.745Z,72.12
2019-03-06T17:34:03.947Z,70.80
2019-03-06T17:37:01.303Z,70.90
2019-03-06T17:39:55.527Z,71.22
2019-03-06T17:42:51.263Z,68.07
2019-03-06T17:45:46.211Z,63.75
2019-03-06T17:48:41.314Z,72.95
2019-03-06T17:51:36.469Z,66.62
2019-03-06T17:54:31.245Z,61.20
2019-03-06T17:57:26.207Z,70.83
2019-03-06T18:00:23.354Z,57.20
2019-03-06T18:03:22.419Z,64.45
2019-03-06T18:06:17.836Z,76.95
2019-03-06T18:09:13.852Z,86.67
2019-03-06T18:12:08.727Z,99.55
2019-03-06T18:15:03.889Z,100.27
2019-03-06T18:17:59.122Z,106.32
2019-03-06T18:20:54.436Z,85.85
2019-03-06T18:23:49.536Z,75.40
2019-03-06T18:26:44.636Z,63.92
2019-03-06T18:29:40.384Z,66.75
2019-03-06T18:32:35.656Z,76.72
2019-03-06T18:35:30.853Z,70.85
2019-03-06T18:38:25.936Z,96.32
2019-03-06T18:41:21.106Z,94.28
2019-03-06T18:44:16.973Z,100.33
2019-03-06T18:47:12.612Z,94.50
2019-03-06T18:50:08.265Z,97.17
2019-03-06T18:53:02.878Z,98.25
2019-03-06T18:55:58.117Z,106.47
2019-03-06T18:58:53.713Z,127.72
2019-03-06T19:01:49.313Z,111.28
2019-03-06T19:04:44.259Z,124.18
2019-03-06T19:07:39.714Z,128.53
2019-03-06T19:10:34.504Z,123.45
2019-03-06T19:13:29.938Z,114.82
2019-03-06T19:16:25.944Z,120.17
2019-03-06T19:19:21.417Z,136.70
2019-03-06T19:22:16.812Z,139.90
2019-03-06T19:25:12.961Z,134.22
2019-03-06T19:28:08.551Z,147.75
2019-03-06T19:31:03.909Z,143.15
2019-03-06T19:33:58.945Z,165.55
2019-03-06T19:36:53.943Z,147.50
2019-03-06T19:39:48.898Z,132.87
2019-03-06T19:42:43.833Z,132.90
2019-03-06T19:45:38.889Z,132.75
2019-03-06T19:48:33.675Z,133.63
2019-03-06T19:51:28.615Z,129.10
2019-03-06T19:54:23.581Z,141.70
2019-03-06T19:57:18.923Z,147.50
2019-03-06T20:00:14.649Z,115.80
2019-03-06T20:03:11.026Z,128.32
2019-03-06T20:06:06.629Z,130.32
2019-03-06T20:09:01.454Z,146.98
2019-03-06T20:11:56.950Z,129.00
2019-03-06T20:14:52.143Z,146.22
2019-03-06T20:17:48.293Z,140.18
2019-03-06T20:20:43.316Z,123.47
2019-03-06T20:23:39.129Z,135.18
2019-03-06T20:26:34.099Z,127.07
2019-03-06T20:29:28.885Z,144.62
2019-03-06T20:32:24.040Z,154.18
2019-03-06T20:35:21.524Z,139.72
2019-03-06T20:38:16.451Z,126.78
2019-03-06T20:41:11.824Z,129.35
2019-03-06T20:44:07.454Z,140.12
2019-03-06T20:47:02.639Z,145.45
2019-03-06T20:49:58.231Z,144.87
2019-03-06T20:52:53.253Z,120.77
2019-03-06T20:55:48.485Z,129.40
2019-03-06T20:58:43.635Z,138.35
2019-03-06T21:01:38.902Z,118.40
2019-03-06T21:04:33.797Z,139.15
2019-03-06T21:07:28.683Z,128.57
2019-03-06T21:10:24.262Z,111.28
2019-03-06T21:13:19.997Z,111.15
2019-03-06T21:16:15.320Z,118.35
2019-03-06T21:19:10.468Z,121.95
2019-03-06T21:22:05.450Z,125.70
2019-03-06T21:25:00.833Z,95.53
2019-03-06T21:27:55.887Z,64.65
2019-03-06T21:30:50.965Z,66.62
2019-03-06T21:33:46.067Z,66.60
2019-03-06T21:36:41.213Z,65.67
2019-03-06T21:39:36.761Z,51.33
2019-03-06T21:42:31.773Z,47.13
2019-03-06T21:45:26.594Z,56.05
2019-03-06T21:48:21.112Z,52.55
2019-03-06T21:51:16.436Z,45.83
2019-03-06T21:54:11.504Z,45.48
2019-03-06T21:57:06.502Z,40.20
2019-03-06T22:00:01.612Z,51.90
2019-03-06T22:02:56.897Z,46.10
2019-03-06T22:05:51.823Z,44.42
2019-03-06T22:08:46.785Z,34.98
2019-03-06T22:11:41.953Z,37.95
2019-03-06T22:14:36.944Z,38.65
2019-03-06T22:17:32.096Z,44.42
2019-03-06T22:20:27.299Z,49.77
2019-03-06T22:23:22.659Z,42.83
2019-03-06T22:26:17.508Z,44.80
2019-03-06T22:29:12.885Z,39.40
2019-03-06T22:32:07.929Z,41.73
2019-03-06T22:35:03.249Z,36.58
2019-03-06T22:37:58.670Z,29.65
2019-03-06T22:40:54.512Z,39.30
2019-03-06T22:43:49.601Z,42.05
2019-03-06T22:46:44.485Z,35.78
2019-03-06T22:49:39.633Z,38.60
2019-03-06T22:52:34.473Z,40.43
2019-03-06T22:55:29.931Z,51.15
2019-03-06T22:58:25.010Z,70.87
2019-03-06T23:01:39.106Z,40.85
2019-03-06T23:04:34.366Z,50.90
2019-03-06T23:07:29.252Z,39.30
2019-03-06T23:10:24.471Z,39.10
2019-03-06T23:13:19.871Z,40.67
2019-03-06T23:16:14.717Z,48.10
2019-03-06T23:19:09.499Z,40.05
2019-03-06T23:22:04.501Z,46.20
2019-03-06T23:24:59.405Z,43.38
2019-03-06T23:27:54.815Z,46.08
2019-03-06T23:30:49.861Z,46.42
2019-03-06T23:33:44.797Z,41.75
2019-03-06T23:36:39.791Z,42.88
2019-03-06T23:39:34.786Z,54.13
2019-03-06T23:42:30.275Z,49.03
2019-03-06T23:45:25.427Z,49.88
2019-03-06T23:48:20.251Z,54.10
2019-03-06T23:51:22.872Z,60.25
2019-03-06T23:54:19.402Z,45.12
2019-03-06T23:57:13.226Z,49.93
